sensor_id;sensor_type;location;lat;lon;timestamp;pressure;altitude;pressure_sealevel;temperature;humidity
77360;BME280;66426;51.454;7.266;2023-06-10T00:00:49;100016.97;;;19.06;62.88
77360;BME280;66426;51.454;7.266;2023-06-10T00:01:52;100012.41;;;19.16;62.27
77360;BME280;66426;51.454;7.266;2023-06-10T00:02:55;100018.47;;;19.20;63.50
77360;BME280;66426;51.454;7.266;2023-06-10T00:03:56;100016.31;;;19.24;63.60
77360;BME280;66426;51.454;7.266;2023-06-10T00:04:57;100018.28;;;19.12;63.97
77360;BME280;66426;51.454;7.266;2023-06-10T00:05:59;100017.56;;;19.10;62.95
77360;BME280;66426;51.454;7.266;2023-06-10T00:07:00;100021.38;;;19.28;63.17
77360;BME280;66426;51.454;7.266;2023-06-10T00:08:01;100016.94;;;19.27;61.85
77360;BME280;66426;51.454;7.266;2023-06-10T00:09:07;100017.41;;;19.11;62.15
77360;BME280;66426;51.454;7.266;2023-06-10T00:10:11;100019.00;;;19.14;62.34
77360;BME280;66426;51.454;7.266;2023-06-10T00:11:12;100011.72;;;18.93;63.45
77360;BME280;66426;51.454;7.266;2023-06-10T00:12:13;100017.13;;;19.05;62.80
77360;BME280;66426;51.454;7.266;2023-06-10T00:13:15;100014.56;;;19.13;62.17
77360;BME280;66426;51.454;7.266;2023-06-10T00:14:17;100012.78;;;19.02;63.37
77360;BME280;66426;51.454;7.266;2023-06-10T00:15:18;100015.25;;;19.05;63.37
77360;BME280;66426;51.454;7.266;2023-06-10T00:16:21;100011.69;;;19.14;62.38
77360;BME280;66426;51.454;7.266;2023-06-10T00:17:22;100017.19;;;19.24;62.46
77360;BME280;66426;51.454;7.266;2023-06-10T00:18:23;100015.06;;;18.97;63.37
77360;BME280;66426;51.454;7.266;2023-06-10T00:19:24;100016.31;;;18.93;63.43
77360;BME280;66426;51.454;7.266;2023-06-10T00:20:26;100015.53;;;19.02;63.87
77360;BME280;66426;51.454;7.266;2023-06-10T00:21:27;100015.13;;;19.16;63.04
77360;BME280;66426;51.454;7.266;2023-06-10T00:22:28;100014.56;;;19.13;63.57
77360;BME280;66426;51.454;7.266;2023-06-10T00:23:30;100017.13;;;19.14;63.45
77360;BME280;66426;51.454;7.266;2023-06-10T00:24:31;100011.88;;;19.23;63.44
77360;BME280;66426;51.454;7.266;2023-06-10T00:25:32;100013.00;;;19.20;62.88
77360;BME280;66426;51.454;7.266;2023-06-10T00:26:33;100013.25;;;19.07;63.88
77360;BME280;66426;51.454;7.266;2023-06-10T00:27:34;100011.44;;;19.17;63.87
77360;BME280;66426;51.454;7.266;2023-06-10T00:28:35;100006.22;;;19.14;63.03
77360;BME280;66426;51.454;7.266;2023-06-10T00:29:36;100005.34;;;19.14;63.41
77360;BME280;66426;51.454;7.266;2023-06-10T00:30:37;100010.56;;;19.17;63.57
77360;BME280;66426;51.454;7.266;2023-06-10T00:31:39;100014.16;;;19.17;63.71
77360;BME280;66426;51.454;7.266;2023-06-10T00:32:40;100017.75;;;19.18;64.08
77360;BME280;66426;51.454;7.266;2023-06-10T00:33:41;100010.56;;;19.17;63.57
77360;BME280;66426;51.454;7.266;2023-06-10T00:34:42;100009.63;;;19.07;63.94
77360;BME280;66426;51.454;7.266;2023-06-10T00:35:43;100007.97;;;19.15;63.51
77360;BME280;66426;51.454;7.266;2023-06-10T00:36:44;100018.38;;;19.01;64.45
77360;BME280;66426;51.454;7.266;2023-06-10T00:37:45;100017.97;;;19.05;63.99
77360;BME280;66426;51.454;7.266;2023-06-10T00:38:46;100024.00;;;19.09;64.05
77360;BME280;66426;51.454;7.266;2023-06-10T00:39:47;100016.69;;;19.09;64.29
77360;BME280;66426;51.454;7.266;2023-06-10T00:40:48;100021.06;;;19.22;63.69
77360;BME280;66426;51.454;7.266;2023-06-10T00:41:49;100017.13;;;19.05;64.68
77360;BME280;66426;51.454;7.266;2023-06-10T00:42:50;100018.03;;;18.94;65.22
77360;BME280;66426;51.454;7.266;2023-06-10T00:43:51;100019.38;;;19.00;65.04
77360;BME280;66426;51.454;7.266;2023-06-10T00:44:53;100017.47;;;18.90;65.04
77360;BME280;66426;51.454;7.266;2023-06-10T00:45:55;100024.63;;;18.91;64.98
77360;BME280;66426;51.454;7.266;2023-06-10T00:46:57;100011.72;;;18.93;64.70
77360;BME280;66426;51.454;7.266;2023-06-10T00:47:58;100014.44;;;18.93;64.52
77360;BME280;66426;51.454;7.266;2023-06-10T00:49:00;100015.59;;;18.70;66.08
77360;BME280;66426;51.454;7.266;2023-06-10T00:50:02;100014.28;;;18.85;65.72
77360;BME280;66426;51.454;7.266;2023-06-10T00:51:05;100016.66;;;19.00;65.27
77360;BME280;66426;51.454;7.266;2023-06-10T00:52:07;100018.50;;;18.99;64.84
77360;BME280;66426;51.454;7.266;2023-06-10T00:53:09;100019.44;;;18.88;65.56
77360;BME280;66426;51.454;7.266;2023-06-10T00:54:10;100022.59;;;18.84;65.58
77360;BME280;66426;51.454;7.266;2023-06-10T00:55:16;100028.78;;;18.74;65.51
77360;BME280;66426;51.454;7.266;2023-06-10T00:56:17;100021.13;;;18.80;66.31
77360;BME280;66426;51.454;7.266;2023-06-10T00:57:18;100024.31;;;18.85;65.60
77360;BME280;66426;51.454;7.266;2023-06-10T00:58:19;100026.91;;;18.86;65.42
77360;BME280;66426;51.454;7.266;2023-06-10T00:59:20;100026.00;;;18.97;65.02
77360;BME280;66426;51.454;7.266;2023-06-10T01:00:21;100019.34;;;18.90;65.21
77360;BME280;66426;51.454;7.266;2023-06-10T01:01:22;100022.91;;;18.90;66.00
77360;BME280;66426;51.454;7.266;2023-06-10T01:02:26;100022.63;;;18.93;65.76
77360;BME280;66426;51.454;7.266;2023-06-10T01:03:27;100022.72;;;18.82;65.14
77360;BME280;66426;51.454;7.266;2023-06-10T01:04:28;100025.47;;;18.82;66.21
77360;BME280;66426;51.454;7.266;2023-06-10T01:05:29;100019.06;;;18.93;66.07
77360;BME280;66426;51.454;7.266;2023-06-10T01:06:36;100021.50;;;18.75;66.33
77360;BME280;66426;51.454;7.266;2023-06-10T01:07:52;100019.09;;;18.61;66.50
77360;BME280;66426;51.454;7.266;2023-06-10T01:09:02;100014.72;;;18.90;65.87
77360;BME280;66426;51.454;7.266;2023-06-10T01:10:11;100016.94;;;18.75;66.55
77360;BME280;66426;51.454;7.266;2023-06-10T01:11:20;100022.13;;;19.00;66.01
77360;BME280;66426;51.454;7.266;2023-06-10T01:12:28;100023.44;;;19.05;65.78
77360;BME280;66426;51.454;7.266;2023-06-10T01:13:32;100016.38;;;19.03;65.78
77360;BME280;66426;51.454;7.266;2023-06-10T01:14:35;100024.78;;;18.90;65.79
77360;BME280;66426;51.454;7.266;2023-06-10T01:15:37;100024.56;;;18.82;65.84
77360;BME280;66426;51.454;7.266;2023-06-10T01:16:38;100020.88;;;18.83;66.17
77360;BME280;66426;51.454;7.266;2023-06-10T01:17:55;100022.56;;;18.63;67.02
77360;BME280;66426;51.454;7.266;2023-06-10T01:18:58;100022.88;;;18.69;66.75
77360;BME280;66426;51.454;7.266;2023-06-10T01:19:59;100018.25;;;18.81;65.98
77360;BME280;66426;51.454;7.266;2023-06-10T01:21:00;100024.72;;;18.80;66.48
77360;BME280;66426;51.454;7.266;2023-06-10T01:22:02;100020.41;;;18.66;66.07
77360;BME280;66426;51.454;7.266;2023-06-10T01:23:04;100021.63;;;18.73;66.57
77360;BME280;66426;51.454;7.266;2023-06-10T01:24:05;100023.41;;;18.63;66.72
77360;BME280;66426;51.454;7.266;2023-06-10T01:25:08;100023.16;;;18.66;66.55
77360;BME280;66426;51.454;7.266;2023-06-10T01:26:11;100022.00;;;18.69;66.49
77360;BME280;66426;51.454;7.266;2023-06-10T01:27:14;100025.59;;;18.69;66.38
77360;BME280;66426;51.454;7.266;2023-06-10T01:28:19;100018.41;;;18.80;66.39
77360;BME280;66426;51.454;7.266;2023-06-10T01:29:29;100024.00;;;18.67;66.37
77360;BME280;66426;51.454;7.266;2023-06-10T01:30:37;100025.75;;;18.68;65.96
77360;BME280;66426;51.454;7.266;2023-06-10T01:31:42;100018.69;;;18.65;66.17
77360;BME280;66426;51.454;7.266;2023-06-10T01:32:50;100024.09;;;18.56;66.77
77360;BME280;66426;51.454;7.266;2023-06-10T01:33:53;100022.03;;;18.48;67.11
77360;BME280;66426;51.454;7.266;2023-06-10T01:34:54;100028.22;;;18.50;67.04
77360;BME280;66426;51.454;7.266;2023-06-10T01:35:59;100025.22;;;18.53;67.01
77360;BME280;66426;51.454;7.266;2023-06-10T01:37:04;100026.47;;;18.49;66.98
77360;BME280;66426;51.454;7.266;2023-06-10T01:38:06;100029.66;;;18.33;67.68
77360;BME280;66426;51.454;7.266;2023-06-10T01:39:08;100031.03;;;18.27;67.86
77360;BME280;66426;51.454;7.266;2023-06-10T01:40:12;100031.75;;;18.29;67.61
77360;BME280;66426;51.454;7.266;2023-06-10T01:41:16;100031.72;;;18.41;67.11
77360;BME280;66426;51.454;7.266;2023-06-10T01:42:17;100024.13;;;18.44;66.70
77360;BME280;66426;51.454;7.266;2023-06-10T01:43:19;100031.44;;;18.44;66.92
77360;BME280;66426;51.454;7.266;2023-06-10T01:44:21;100035.78;;;18.46;67.18
77360;BME280;66426;51.454;7.266;2023-06-10T01:45:23;100031.91;;;18.49;67.38
77360;BME280;66426;51.454;7.266;2023-06-10T01:46:23;100027.91;;;18.32;67.99
77360;BME280;66426;51.454;7.266;2023-06-10T01:47:24;100032.78;;;18.28;67.72
77360;BME280;66426;51.454;7.266;2023-06-10T01:48:26;100030.81;;;18.19;68.21
77360;BME280;66426;51.454;7.266;2023-06-10T01:49:27;100036.53;;;18.16;68.42
77360;BME280;66426;51.454;7.266;2023-06-10T01:50:29;100037.91;;;18.10;68.33
77360;BME280;66426;51.454;7.266;2023-06-10T01:51:30;100022.72;;;18.29;67.31
77360;BME280;66426;51.454;7.266;2023-06-10T01:52:33;100030.47;;;18.45;66.89
77360;BME280;66426;51.454;7.266;2023-06-10T01:53:34;100032.94;;;18.48;66.77
77360;BME280;66426;51.454;7.266;2023-06-10T01:54:35;100027.78;;;18.33;67.24
77360;BME280;66426;51.454;7.266;2023-06-10T01:55:36;100025.53;;;18.39;66.91
77360;BME280;66426;51.454;7.266;2023-06-10T01:56:37;100027.50;;;18.37;67.40
77360;BME280;66426;51.454;7.266;2023-06-10T01:57:38;100021.41;;;18.44;67.02
77360;BME280;66426;51.454;7.266;2023-06-10T01:58:39;100023.88;;;18.47;66.99
77360;BME280;66426;51.454;7.266;2023-06-10T01:59:40;100031.91;;;18.49;66.73
77360;BME280;66426;51.454;7.266;2023-06-10T02:00:43;100029.84;;;18.41;66.72
77360;BME280;66426;51.454;7.266;2023-06-10T02:01:43;100027.66;;;18.35;67.40
77360;BME280;66426;51.454;7.266;2023-06-10T02:02:45;100025.78;;;18.36;67.36
77360;BME280;66426;51.454;7.266;2023-06-10T02:03:45;100031.81;;;18.18;67.84
77360;BME280;66426;51.454;7.266;2023-06-10T02:04:46;100029.28;;;18.26;67.83
77360;BME280;66426;51.454;7.266;2023-06-10T02:05:47;100026.38;;;18.18;68.19
77360;BME280;66426;51.454;7.266;2023-06-10T02:06:48;100024.47;;;18.30;67.50
77360;BME280;66426;51.454;7.266;2023-06-10T02:07:51;100027.88;;;18.11;68.56
77360;BME280;66426;51.454;7.266;2023-06-10T02:08:51;100028.97;;;18.20;68.42
77360;BME280;66426;51.454;7.266;2023-06-10T02:09:52;100032.31;;;18.12;68.71
77360;BME280;66426;51.454;7.266;2023-06-10T02:10:53;100027.44;;;17.95;69.49
77360;BME280;66426;51.454;7.266;2023-06-10T02:11:54;100024.56;;;18.07;68.98
77360;BME280;66426;51.454;7.266;2023-06-10T02:12:55;100028.50;;;18.15;68.53
77360;BME280;66426;51.454;7.266;2023-06-10T02:13:56;100027.84;;;18.22;68.12
77360;BME280;66426;51.454;7.266;2023-06-10T02:14:57;100026.38;;;18.18;68.23
77360;BME280;66426;51.454;7.266;2023-06-10T02:15:58;100027.28;;;18.07;69.15
77360;BME280;66426;51.454;7.266;2023-06-10T02:16:59;100022.59;;;18.30;68.30
77360;BME280;66426;51.454;7.266;2023-06-10T02:18:00;100024.59;;;18.28;67.90
77360;BME280;66426;51.454;7.266;2023-06-10T02:19:01;100027.69;;;18.24;67.95
77360;BME280;66426;51.454;7.266;2023-06-10T02:20:05;100037.06;;;18.10;68.95
77360;BME280;66426;51.454;7.266;2023-06-10T02:21:07;100032.19;;;18.14;68.75
77360;BME280;66426;51.454;7.266;2023-06-10T02:22:08;100031.06;;;18.16;68.66
77360;BME280;66426;51.454;7.266;2023-06-10T02:23:11;100032.47;;;18.10;68.61
77360;BME280;66426;51.454;7.266;2023-06-10T02:24:12;100030.72;;;18.09;68.83
77360;BME280;66426;51.454;7.266;2023-06-10T02:25:13;100035.13;;;18.22;68.47
77360;BME280;66426;51.454;7.266;2023-06-10T02:26:14;100033.06;;;18.14;68.56
77360;BME280;66426;51.454;7.266;2023-06-10T02:27:16;100034.63;;;17.96;69.33
77360;BME280;66426;51.454;7.266;2023-06-10T02:28:17;100032.84;;;18.06;69.09
77360;BME280;66426;51.454;7.266;2023-06-10T02:29:18;100032.09;;;18.15;68.30
77360;BME280;66426;51.454;7.266;2023-06-10T02:30:19;100034.66;;;18.17;68.46
77360;BME280;66426;51.454;7.266;2023-06-10T02:31:20;100039.41;;;18.15;68.64
77360;BME280;66426;51.454;7.266;2023-06-10T02:32:21;100040.44;;;18.02;68.81
77360;BME280;66426;51.454;7.266;2023-06-10T02:33:22;100035.22;;;17.99;68.92
77360;BME280;66426;51.454;7.266;2023-06-10T02:34:23;100036.81;;;18.02;69.18
77360;BME280;66426;51.454;7.266;2023-06-10T02:35:24;100033.00;;;17.93;69.45
77360;BME280;66426;51.454;7.266;2023-06-10T02:36:25;100037.81;;;18.01;69.15
77360;BME280;66426;51.454;7.266;2023-06-10T02:37:28;100040.44;;;18.02;69.02
77360;BME280;66426;51.454;7.266;2023-06-10T02:38:31;100037.81;;;18.01;69.19
77360;BME280;66426;51.454;7.266;2023-06-10T02:39:32;100037.78;;;18.12;68.92
77360;BME280;66426;51.454;7.266;2023-06-10T02:40:33;100038.28;;;18.17;68.94
77360;BME280;66426;51.454;7.266;2023-06-10T02:41:33;100034.72;;;18.05;68.87
77360;BME280;66426;51.454;7.266;2023-06-10T02:42:34;100032.84;;;18.06;68.84
77360;BME280;66426;51.454;7.266;2023-06-10T02:43:37;100037.72;;;18.02;68.73
77360;BME280;66426;51.454;7.266;2023-06-10T02:44:38;100041.03;;;18.06;68.45
77360;BME280;66426;51.454;7.266;2023-06-10T02:45:39;100034.97;;;18.02;68.87
77360;BME280;66426;51.454;7.266;2023-06-10T02:46:40;100038.69;;;18.01;68.70
77360;BME280;66426;51.454;7.266;2023-06-10T02:47:41;100029.81;;;17.88;69.02
77360;BME280;66426;51.454;7.266;2023-06-10T02:48:43;100039.22;;;17.95;68.93
77360;BME280;66426;51.454;7.266;2023-06-10T02:49:46;100036.59;;;17.94;68.88
77360;BME280;66426;51.454;7.266;2023-06-10T02:50:47;100035.63;;;17.95;69.05
77360;BME280;66426;51.454;7.266;2023-06-10T02:51:49;100035.38;;;17.86;69.43
77360;BME280;66426;51.454;7.266;2023-06-10T02:52:54;100036.88;;;17.68;69.31
77360;BME280;66426;51.454;7.266;2023-06-10T02:53:56;100039.81;;;17.76;69.32
77360;BME280;66426;51.454;7.266;2023-06-10T02:54:57;100031.69;;;17.87;69.51
77360;BME280;66426;51.454;7.266;2023-06-10T02:55:58;100036.88;;;17.91;68.97
77360;BME280;66426;51.454;7.266;2023-06-10T02:57:00;100038.47;;;17.59;70.16
77360;BME280;66426;51.454;7.266;2023-06-10T02:58:01;100038.47;;;17.71;70.00
77360;BME280;66426;51.454;7.266;2023-06-10T02:59:07;100035.03;;;17.57;70.07
77360;BME280;66426;51.454;7.266;2023-06-10T03:00:26;100029.94;;;17.64;70.34
77360;BME280;66426;51.454;7.266;2023-06-10T03:01:27;100031.19;;;17.82;69.59
77360;BME280;66426;51.454;7.266;2023-06-10T03:02:28;100040.94;;;17.96;69.25
77360;BME280;66426;51.454;7.266;2023-06-10T03:03:30;100033.91;;;17.82;69.21
77360;BME280;66426;51.454;7.266;2023-06-10T03:04:31;100036.72;;;17.92;69.35
77360;BME280;66426;51.454;7.266;2023-06-10T03:05:32;100044.78;;;17.71;70.12
77360;BME280;66426;51.454;7.266;2023-06-10T03:06:33;100035.13;;;17.78;70.25
77360;BME280;66426;51.454;7.266;2023-06-10T03:07:34;100031.78;;;17.75;69.70
77360;BME280;66426;51.454;7.266;2023-06-10T03:08:35;100035.88;;;17.69;70.69
77360;BME280;66426;51.454;7.266;2023-06-10T03:09:38;100032.16;;;17.70;70.16
77360;BME280;66426;51.454;7.266;2023-06-10T03:10:39;100027.22;;;17.64;70.27
77360;BME280;66426;51.454;7.266;2023-06-10T03:11:40;100034.66;;;17.51;71.20
77360;BME280;66426;51.454;7.266;2023-06-10T03:12:41;100039.34;;;17.71;70.66
77360;BME280;66426;51.454;7.266;2023-06-10T03:13:42;100038.00;;;17.43;70.92
77360;BME280;66426;51.454;7.266;2023-06-10T03:14:42;100039.25;;;17.50;71.06
77360;BME280;66426;51.454;7.266;2023-06-10T03:15:43;100037.34;;;17.62;70.27
77360;BME280;66426;51.454;7.266;2023-06-10T03:16:45;100040.97;;;17.62;70.55
77360;BME280;66426;51.454;7.266;2023-06-10T03:17:46;100034.78;;;17.49;70.32
77360;BME280;66426;51.454;7.266;2023-06-10T03:18:47;100038.50;;;17.48;71.11
77360;BME280;66426;51.454;7.266;2023-06-10T03:19:49;100037.66;;;17.48;70.95
77360;BME280;66426;51.454;7.266;2023-06-10T03:20:50;100034.28;;;17.44;71.17
77360;BME280;66426;51.454;7.266;2023-06-10T03:22:07;100036.78;;;17.36;71.08
77360;BME280;66426;51.454;7.266;2023-06-10T03:23:09;100036.78;;;17.36;71.50
77360;BME280;66426;51.454;7.266;2023-06-10T03:24:10;100037.75;;;17.46;70.93
77360;BME280;66426;51.454;7.266;2023-06-10T03:25:12;100032.53;;;17.54;71.21
77360;BME280;66426;51.454;7.266;2023-06-10T03:26:15;100026.47;;;17.62;70.96
77360;BME280;66426;51.454;7.266;2023-06-10T03:27:16;100040.50;;;17.57;70.87
77360;BME280;66426;51.454;7.266;2023-06-10T03:28:17;100036.66;;;17.60;71.11
77360;BME280;66426;51.454;7.266;2023-06-10T03:29:18;100038.28;;;17.40;71.64
77360;BME280;66426;51.454;7.266;2023-06-10T03:30:19;100027.22;;;17.41;71.49
77360;BME280;66426;51.454;7.266;2023-06-10T03:31:20;100034.41;;;17.54;71.12
77360;BME280;66426;51.454;7.266;2023-06-10T03:32:21;100041.84;;;17.52;70.84
77360;BME280;66426;51.454;7.266;2023-06-10T03:33:22;100039.09;;;17.52;70.82
77360;BME280;66426;51.454;7.266;2023-06-10T03:34:23;100048.03;;;17.54;70.63
77360;BME280;66426;51.454;7.266;2023-06-10T03:35:24;100043.56;;;17.41;71.15
77360;BME280;66426;51.454;7.266;2023-06-10T03:36:25;100044.22;;;17.45;70.94
77360;BME280;66426;51.454;7.266;2023-06-10T03:37:29;100037.00;;;17.44;70.87
77360;BME280;66426;51.454;7.266;2023-06-10T03:38:30;100041.34;;;17.46;71.29
77360;BME280;66426;51.454;7.266;2023-06-10T03:39:31;100042.47;;;17.44;71.54
77360;BME280;66426;51.454;7.266;2023-06-10T03:40:33;100049.53;;;17.35;71.11
77360;BME280;66426;51.454;7.266;2023-06-10T03:41:34;100049.16;;;17.40;71.62
77360;BME280;66426;51.454;7.266;2023-06-10T03:42:35;100046.41;;;17.51;70.98
77360;BME280;66426;51.454;7.266;2023-06-10T03:43:37;100046.94;;;17.22;71.89
77360;BME280;66426;51.454;7.266;2023-06-10T03:44:39;100046.03;;;17.22;72.27
77360;BME280;66426;51.454;7.266;2023-06-10T03:45:40;100050.16;;;17.28;71.91
77360;BME280;66426;51.454;7.266;2023-06-10T03:46:42;100044.94;;;17.36;72.01
77360;BME280;66426;51.454;7.266;2023-06-10T03:47:43;100054.47;;;17.19;72.49
77360;BME280;66426;51.454;7.266;2023-06-10T03:48:44;100060.78;;;17.19;72.39
77360;BME280;66426;51.454;7.266;2023-06-10T03:49:45;100055.34;;;17.31;72.35
77360;BME280;66426;51.454;7.266;2023-06-10T03:50:46;100056.31;;;17.07;72.72
77360;BME280;66426;51.454;7.266;2023-06-10T03:51:48;100054.84;;;17.25;72.57
77360;BME280;66426;51.454;7.266;2023-06-10T03:52:49;100055.31;;;17.42;71.81
77360;BME280;66426;51.454;7.266;2023-06-10T03:53:50;100061.16;;;17.26;71.87
77360;BME280;66426;51.454;7.266;2023-06-10T03:54:51;100063.50;;;17.42;71.74
77360;BME280;66426;51.454;7.266;2023-06-10T03:55:53;100053.09;;;17.24;72.21
77360;BME280;66426;51.454;7.266;2023-06-10T03:56:54;100053.00;;;17.37;72.08
77360;BME280;66426;51.454;7.266;2023-06-10T03:57:55;100066.72;;;17.24;72.35
77360;BME280;66426;51.454;7.266;2023-06-10T03:58:56;100055.94;;;17.34;72.11
77360;BME280;66426;51.454;7.266;2023-06-10T03:59:57;100072.41;;;17.21;72.79
77360;BME280;66426;51.454;7.266;2023-06-10T04:00:58;100065.22;;;17.32;72.91
77360;BME280;66426;51.454;7.266;2023-06-10T04:01:59;100061.03;;;17.39;71.85
77360;BME280;66426;51.454;7.266;2023-06-10T04:03:02;100065.50;;;17.40;72.06
77360;BME280;66426;51.454;7.266;2023-06-10T04:04:03;100060.44;;;17.35;72.28
77360;BME280;66426;51.454;7.266;2023-06-10T04:05:05;100066.38;;;17.40;72.39
77360;BME280;66426;51.454;7.266;2023-06-10T04:06:06;100061.75;;;17.30;72.52
77360;BME280;66426;51.454;7.266;2023-06-10T04:07:07;100060.28;;;17.37;71.97
77360;BME280;66426;51.454;7.266;2023-06-10T04:08:08;100063.38;;;17.32;72.33
77360;BME280;66426;51.454;7.266;2023-06-10T04:09:11;100062.38;;;17.11;73.24
77360;BME280;66426;51.454;7.266;2023-06-10T04:10:13;100065.34;;;17.19;73.24
77360;BME280;66426;51.454;7.266;2023-06-10T04:11:15;100063.16;;;17.35;72.33
77360;BME280;66426;51.454;7.266;2023-06-10T04:12:16;100060.91;;;17.40;72.55
77360;BME280;66426;51.454;7.266;2023-06-10T04:13:17;100067.59;;;17.25;72.97
77360;BME280;66426;51.454;7.266;2023-06-10T04:14:20;100064.25;;;17.44;72.34
77360;BME280;66426;51.454;7.266;2023-06-10T04:15:21;100069.44;;;17.24;72.97
77360;BME280;66426;51.454;7.266;2023-06-10T04:16:22;100063.66;;;17.40;72.50
77360;BME280;66426;51.454;7.266;2023-06-10T04:17:23;100067.84;;;17.33;72.57
77360;BME280;66426;51.454;7.266;2023-06-10T04:18:24;100064.63;;;17.39;72.49
77360;BME280;66426;51.454;7.266;2023-06-10T04:19:25;100072.81;;;17.51;72.11
77360;BME280;66426;51.454;7.266;2023-06-10T04:20:26;100070.81;;;17.30;72.85
77360;BME280;66426;51.454;7.266;2023-06-10T04:21:27;100073.06;;;17.25;73.86
77360;BME280;66426;51.454;7.266;2023-06-10T04:22:28;100072.06;;;17.49;72.62
77360;BME280;66426;51.454;7.266;2023-06-10T04:23:29;100067.47;;;17.38;72.35
77360;BME280;66426;51.454;7.266;2023-06-10T04:24:30;100074.41;;;17.53;72.25
77360;BME280;66426;51.454;7.266;2023-06-10T04:25:31;100078.00;;;17.20;73.46
77360;BME280;66426;51.454;7.266;2023-06-10T04:26:34;100075.50;;;17.39;72.39
77360;BME280;66426;51.454;7.266;2023-06-10T04:27:37;100071.44;;;17.56;72.23
77360;BME280;66426;51.454;7.266;2023-06-10T04:28:38;100074.91;;;17.58;71.72
77360;BME280;66426;51.454;7.266;2023-06-10T04:29:40;100080.09;;;17.61;71.55
77360;BME280;66426;51.454;7.266;2023-06-10T04:30:41;100072.31;;;17.45;72.41
77360;BME280;66426;51.454;7.266;2023-06-10T04:31:42;100075.78;;;17.48;72.63
77360;BME280;66426;51.454;7.266;2023-06-10T04:32:43;100079.09;;;17.29;72.77
77360;BME280;66426;51.454;7.266;2023-06-10T04:33:44;100080.72;;;17.54;72.60
77360;BME280;66426;51.454;7.266;2023-06-10T04:34:45;100077.88;;;17.55;72.50
77360;BME280;66426;51.454;7.266;2023-06-10T04:35:46;100074.03;;;17.35;72.56
77360;BME280;66426;51.454;7.266;2023-06-10T04:36:48;100069.19;;;17.39;73.04
77360;BME280;66426;51.454;7.266;2023-06-10T04:37:49;100071.44;;;17.56;72.17
77360;BME280;66426;51.454;7.266;2023-06-10T04:38:50;100073.69;;;17.40;72.87
77360;BME280;66426;51.454;7.266;2023-06-10T04:39:52;100075.91;;;17.57;72.34
77360;BME280;66426;51.454;7.266;2023-06-10T04:40:53;100080.94;;;17.62;71.69
77360;BME280;66426;51.454;7.266;2023-06-10T04:41:56;100077.84;;;17.66;71.78
77360;BME280;66426;51.454;7.266;2023-06-10T04:42:56;100083.44;;;17.31;72.82
77360;BME280;66426;51.454;7.266;2023-06-10T04:43:57;100081.84;;;17.40;72.46
77360;BME280;66426;51.454;7.266;2023-06-10T04:44:59;100075.91;;;17.57;71.81
77360;BME280;66426;51.454;7.266;2023-06-10T04:46:00;100079.72;;;17.66;71.52
77360;BME280;66426;51.454;7.266;2023-06-10T04:47:01;100073.91;;;17.59;71.66
77360;BME280;66426;51.454;7.266;2023-06-10T04:48:02;100073.56;;;17.53;71.80
77360;BME280;66426;51.454;7.266;2023-06-10T04:49:03;100075.00;;;17.57;71.74
77360;BME280;66426;51.454;7.266;2023-06-10T04:50:06;100077.50;;;17.49;72.07
77360;BME280;66426;51.454;7.266;2023-06-10T04:51:07;100073.16;;;17.46;72.16
77360;BME280;66426;51.454;7.266;2023-06-10T04:52:08;100079.97;;;17.52;72.32
77360;BME280;66426;51.454;7.266;2023-06-10T04:53:09;100075.00;;;17.79;71.79
77360;BME280;66426;51.454;7.266;2023-06-10T04:54:10;100078.09;;;17.52;72.22
77360;BME280;66426;51.454;7.266;2023-06-10T04:55:11;100075.91;;;17.57;71.38
77360;BME280;66426;51.454;7.266;2023-06-10T04:56:12;100074.75;;;17.71;71.40
77360;BME280;66426;51.454;7.266;2023-06-10T04:57:14;100076.78;;;17.80;71.07
77360;BME280;66426;51.454;7.266;2023-06-10T04:58:15;100074.16;;;17.90;70.08
77360;BME280;66426;51.454;7.266;2023-06-10T04:59:16;100074.16;;;17.90;70.17
77360;BME280;66426;51.454;7.266;2023-06-10T05:00:17;100077.72;;;17.79;70.46
77360;BME280;66426;51.454;7.266;2023-06-10T05:01:18;100086.53;;;17.72;71.17
77360;BME280;66426;51.454;7.266;2023-06-10T05:02:19;100079.97;;;17.63;71.44
77360;BME280;66426;51.454;7.266;2023-06-10T05:03:20;100077.38;;;17.61;71.76
77360;BME280;66426;51.454;7.266;2023-06-10T05:04:21;100071.44;;;17.67;70.89
77360;BME280;66426;51.454;7.266;2023-06-10T05:05:22;100082.44;;;17.66;70.88
77360;BME280;66426;51.454;7.266;2023-06-10T05:06:23;100086.41;;;17.73;71.01
77360;BME280;66426;51.454;7.266;2023-06-10T05:07:24;100082.94;;;17.71;71.08
77360;BME280;66426;51.454;7.266;2023-06-10T05:08:25;100081.09;;;17.60;70.76
77360;BME280;66426;51.454;7.266;2023-06-10T05:09:26;100078.59;;;17.68;70.29
77360;BME280;66426;51.454;7.266;2023-06-10T05:10:27;100076.63;;;17.82;69.87
77360;BME280;66426;51.454;7.266;2023-06-10T05:11:32;100076.41;;;17.62;70.40
77360;BME280;66426;51.454;7.266;2023-06-10T05:12:34;100077.59;;;17.69;70.33
77360;BME280;66426;51.454;7.266;2023-06-10T05:13:35;100073.38;;;17.77;69.43
77360;BME280;66426;51.454;7.266;2023-06-10T05:14:36;100079.25;;;17.83;69.64
77360;BME280;66426;51.454;7.266;2023-06-10T05:15:37;100078.50;;;17.81;69.61
77360;BME280;66426;51.454;7.266;2023-06-10T05:16:38;100077.13;;;17.87;69.70
77360;BME280;66426;51.454;7.266;2023-06-10T05:17:39;100079.72;;;17.88;69.28
77360;BME280;66426;51.454;7.266;2023-06-10T05:18:40;100067.69;;;17.91;69.21
77360;BME280;66426;51.454;7.266;2023-06-10T05:19:41;100072.03;;;17.94;69.54
77360;BME280;66426;51.454;7.266;2023-06-10T05:20:44;100074.66;;;17.84;69.80
77360;BME280;66426;51.454;7.266;2023-06-10T05:21:45;100077.84;;;17.89;69.42
77360;BME280;66426;51.454;7.266;2023-06-10T05:22:46;100071.91;;;17.95;68.83
77360;BME280;66426;51.454;7.266;2023-06-10T05:23:47;100081.09;;;17.83;68.63